createdAt,value
2023-04-18T00:01:24.918Z,10.98
2023-04-18T00:03:52.181Z,10.88
2023-04-18T00:06:19.374Z,10.93
2023-04-18T00:08:48.666Z,10.90
2023-04-18T00:11:15.119Z,10.89
2023-04-18T00:13:41.740Z,10.86
2023-04-18T00:16:08.766Z,10.78
2023-04-18T00:18:36.913Z,10.72
2023-04-18T00:21:04.452Z,10.70
2023-04-18T00:23:31.116Z,10.68
2023-04-18T00:25:57.530Z,10.67
2023-04-18T00:28:24.770Z,10.65
2023-04-18T00:30:51.479Z,10.62
2023-04-18T00:33:22.283Z,10.58
2023-04-18T00:35:48.700Z,10.50
2023-04-18T00:38:15.262Z,10.49
2023-04-18T00:40:41.963Z,10.44
2023-04-18T00:43:08.503Z,10.42
2023-04-18T00:45:35.332Z,10.36
2023-04-18T00:48:02.139Z,10.29
2023-04-18T00:50:28.758Z,10.26
2023-04-18T00:52:56.009Z,10.24
2023-04-18T00:55:22.777Z,10.19
2023-04-18T00:57:49.286Z,10.14
2023-04-18T01:00:15.924Z,10.11
2023-04-18T01:02:42.775Z,10.07
2023-04-18T01:05:09.808Z,10.06
2023-04-18T01:07:41.736Z,10.04
2023-04-18T01:10:10.268Z,10.00
2023-04-18T01:12:37.785Z,9.96
2023-04-18T01:15:09.461Z,9.90
2023-04-18T01:17:38.035Z,9.92
2023-04-18T01:20:06.497Z,9.88
2023-04-18T01:22:33.659Z,9.83
2023-04-18T01:25:00.294Z,9.82
2023-04-18T01:27:26.909Z,9.78
2023-04-18T01:29:53.436Z,9.76
2023-04-18T01:32:20.455Z,9.71
2023-04-18T01:34:47.232Z,9.68
2023-04-18T01:37:13.697Z,9.68
2023-04-18T01:39:40.248Z,9.67
2023-04-18T01:42:06.627Z,9.66
2023-04-18T01:44:33.126Z,9.65
2023-04-18T01:46:59.636Z,9.63
2023-04-18T01:49:26.203Z,9.61
2023-04-18T01:51:54.292Z,9.59
2023-04-18T01:54:20.786Z,9.57
2023-04-18T01:56:47.207Z,9.56
2023-04-18T01:59:13.620Z,9.55
2023-04-18T02:01:40.573Z,9.52
2023-04-18T02:04:07.112Z,9.51
2023-04-18T02:06:33.665Z,9.48
2023-04-18T02:09:00.386Z,9.44
2023-04-18T02:11:26.933Z,9.42
2023-04-18T02:13:53.418Z,9.44
2023-04-18T02:16:19.976Z,9.41
2023-04-18T02:18:52.428Z,9.37
2023-04-18T02:21:18.944Z,9.34
2023-04-18T02:23:45.467Z,9.34
2023-04-18T02:26:12.006Z,9.28
2023-04-18T02:28:39.208Z,9.27
2023-04-18T02:31:06.619Z,9.27
2023-04-18T02:33:34.134Z,9.25
2023-04-18T02:36:03.743Z,9.24
2023-04-18T02:38:30.304Z,9.23
2023-04-18T02:40:56.820Z,9.25
2023-04-18T02:43:23.291Z,9.22
2023-04-18T02:45:49.941Z,9.20
2023-04-18T02:48:16.469Z,9.16
2023-04-18T02:50:43.030Z,9.24
2023-04-18T02:53:09.580Z,9.23
2023-04-18T02:55:37.321Z,9.25
2023-04-18T02:58:04.992Z,9.23
2023-04-18T03:00:31.635Z,9.21
2023-04-18T03:02:58.317Z,9.17
2023-04-18T03:05:24.920Z,9.12
2023-04-18T03:07:51.459Z,9.06
2023-04-18T03:10:19.289Z,9.06
2023-04-18T03:12:47.620Z,9.02
2023-04-18T03:15:14.268Z,9.00
2023-04-18T03:17:44.012Z,8.96
2023-04-18T03:20:10.848Z,8.93
2023-04-18T03:22:37.252Z,8.90
2023-04-18T03:25:04.028Z,8.87
2023-04-18T03:27:30.795Z,8.84
2023-04-18T03:29:57.199Z,8.81
2023-04-18T03:32:23.586Z,8.80
2023-04-18T03:34:51.335Z,8.79
2023-04-18T03:37:17.725Z,8.79
2023-04-18T03:39:44.362Z,8.77
2023-04-18T03:42:10.907Z,8.75
2023-04-18T03:44:37.262Z,8.75
2023-04-18T03:47:03.748Z,8.66
2023-04-18T03:49:30.175Z,8.70
2023-04-18T03:51:56.732Z,8.73
2023-04-18T03:54:23.177Z,8.71
2023-04-18T03:56:49.620Z,8.69
2023-04-18T03:59:19.134Z,8.64
2023-04-18T04:01:45.739Z,8.55
2023-04-18T04:04:15.209Z,8.53
2023-04-18T04:06:42.293Z,8.50
2023-04-18T04:09:08.870Z,8.50
2023-04-18T04:11:35.246Z,8.53
2023-04-18T04:14:02.155Z,8.53
2023-04-18T04:16:28.895Z,8.54
2023-04-18T04:18:55.725Z,8.53
2023-04-18T04:21:22.099Z,8.53
2023-04-18T04:23:48.807Z,8.49
2023-04-18T04:26:15.650Z,8.40
2023-04-18T04:28:42.927Z,8.52
2023-04-18T04:31:10.272Z,8.53
2023-04-18T04:33:39.003Z,8.54
2023-04-18T04:36:06.784Z,8.56
2023-04-18T04:38:33.532Z,8.56
2023-04-18T04:40:59.968Z,8.57
2023-04-18T04:43:28.702Z,8.57
2023-04-18T04:45:55.734Z,8.57
2023-04-18T04:48:22.378Z,8.56
2023-04-18T04:50:53.738Z,8.57
2023-04-18T04:53:20.112Z,8.59
2023-04-18T04:55:46.719Z,8.62
2023-04-18T04:58:13.130Z,8.63
2023-04-18T05:00:39.947Z,8.63
2023-04-18T05:03:07.151Z,8.64
2023-04-18T05:05:34.012Z,8.63
2023-04-18T05:08:00.595Z,8.63
2023-04-18T05:10:27.005Z,8.61
2023-04-18T05:12:53.511Z,8.60
2023-04-18T05:15:20.248Z,8.59
2023-04-18T05:17:46.752Z,8.61
2023-04-18T05:20:13.330Z,8.62
2023-04-18T05:22:42.886Z,8.68
2023-04-18T05:25:09.549Z,8.67
2023-04-18T05:27:36.025Z,8.65
2023-04-18T05:30:02.414Z,8.64
2023-04-18T05:32:28.852Z,8.63
2023-04-18T05:34:55.687Z,8.64
2023-04-18T05:37:22.656Z,8.61
2023-04-18T05:39:49.152Z,8.61
2023-04-18T05:42:15.737Z,8.58
2023-04-18T05:44:42.138Z,8.56
2023-04-18T05:47:08.585Z,8.58
2023-04-18T05:49:35.192Z,8.61
2023-04-18T05:52:01.676Z,8.63
2023-04-18T05:54:28.362Z,8.64
2023-04-18T05:56:57.257Z,8.66
2023-04-18T05:59:23.755Z,8.67
2023-04-18T06:01:50.193Z,8.72
2023-04-18T06:04:17.003Z,8.73
2023-04-18T06:06:43.809Z,8.75
2023-04-18T06:09:10.283Z,8.75
2023-04-18T06:11:36.816Z,8.73
2023-04-18T06:14:03.642Z,8.74
2023-04-18T06:16:30.264Z,8.78
2023-04-18T06:18:59.546Z,8.77
2023-04-18T06:21:29.875Z,8.78
2023-04-18T06:23:57.514Z,8.79
2023-04-18T06:26:24.514Z,8.78
2023-04-18T06:28:50.925Z,8.78
2023-04-18T06:31:17.454Z,8.78
2023-04-18T06:33:43.993Z,8.80
2023-04-18T06:36:10.498Z,8.82
2023-04-18T06:38:37.081Z,8.76
2023-04-18T06:41:03.565Z,8.72
2023-04-18T06:43:30.142Z,8.75
2023-04-18T06:45:57.113Z,8.79
2023-04-18T06:48:23.614Z,8.84
2023-04-18T06:50:50.105Z,8.90
2023-04-18T06:53:16.546Z,8.99
2023-04-18T06:55:45.768Z,9.08
2023-04-18T06:58:13.741Z,9.13
2023-04-18T07:00:40.330Z,9.15
2023-04-18T07:03:11.298Z,9.20
2023-04-18T07:05:40.866Z,9.29
2023-04-18T07:08:08.413Z,9.31
2023-04-18T07:10:35.617Z,9.35
2023-04-18T07:13:02.301Z,9.48
2023-04-18T07:15:29.289Z,9.59
2023-04-18T07:17:56.064Z,9.61
2023-04-18T07:20:22.607Z,9.65
2023-04-18T07:22:49.077Z,9.71
2023-04-18T07:25:15.562Z,9.79
2023-04-18T07:27:42.089Z,9.86
2023-04-18T07:30:10.681Z,9.98
2023-04-18T07:32:41.303Z,10.09
2023-04-18T07:35:08.064Z,10.36
2023-04-18T07:37:34.748Z,10.83
2023-04-18T07:40:01.201Z,11.36
2023-04-18T07:42:27.863Z,11.92
2023-04-18T07:45:00.711Z,12.29
2023-04-18T07:47:29.788Z,12.50
2023-04-18T07:49:57.354Z,12.66
2023-04-18T07:52:23.814Z,12.74
2023-04-18T07:54:50.435Z,13.04
2023-04-18T07:57:19.234Z,13.54
2023-04-18T07:59:46.178Z,13.75
2023-04-18T08:02:12.643Z,14.07
2023-04-18T08:04:39.264Z,14.59
2023-04-18T08:07:06.051Z,15.02
2023-04-18T08:09:32.682Z,15.26
2023-04-18T08:11:59.432Z,15.44
2023-04-18T08:14:25.973Z,15.70
2023-04-18T08:16:52.619Z,15.73
2023-04-18T08:19:19.237Z,15.83
2023-04-18T08:21:46.132Z,15.94
2023-04-18T08:24:13.738Z,15.99
2023-04-18T08:26:40.121Z,15.71
2023-04-18T08:29:07.286Z,15.69
2023-04-18T08:31:33.802Z,15.93
2023-04-18T08:34:00.220Z,16.40
2023-04-18T08:36:26.772Z,16.70
2023-04-18T08:38:53.326Z,16.58
2023-04-18T08:41:23.324Z,16.33
2023-04-18T08:43:49.796Z,16.04
2023-04-18T08:46:17.202Z,15.85
2023-04-18T08:48:43.764Z,15.57
2023-04-18T08:51:10.272Z,15.32
2023-04-18T08:53:36.740Z,15.01
2023-04-18T08:56:05.318Z,14.80
2023-04-18T08:58:33.684Z,14.66
2023-04-18T09:01:00.887Z,14.83
2023-04-18T09:03:39.812Z,15.15
2023-04-18T09:06:14.844Z,15.39
2023-04-18T09:08:54.728Z,15.43
2023-04-18T09:11:26.393Z,15.53
2023-04-18T09:13:56.164Z,15.79
2023-04-18T09:16:23.612Z,16.09
2023-04-18T09:19:11.072Z,16.48
2023-04-18T09:21:46.255Z,16.45
2023-04-18T09:24:21.211Z,16.24
2023-04-18T09:26:49.793Z,16.12
2023-04-18T09:29:18.411Z,16.01
2023-04-18T09:32:01.259Z,15.78
2023-04-18T09:34:29.031Z,15.56
2023-04-18T09:37:10.044Z,15.39
2023-04-18T09:39:41.183Z,15.25
2023-04-18T09:42:10.375Z,15.11
2023-04-18T09:44:37.840Z,15.13
2023-04-18T09:47:07.136Z,15.46
2023-04-18T09:49:35.164Z,15.65
2023-04-18T09:52:05.160Z,15.53
2023-04-18T09:54:37.808Z,15.22
2023-04-18T09:57:10.392Z,15.03
2023-04-18T09:59:51.073Z,14.87
2023-04-18T10:02:22.589Z,14.65
2023-04-18T10:04:54.223Z,14.52
2023-04-18T10:07:20.869Z,14.49
2023-04-18T10:09:48.946Z,14.54
2023-04-18T10:12:17.860Z,14.63
2023-04-18T10:14:44.713Z,14.68
2023-04-18T10:17:16.948Z,14.55
2023-04-18T10:19:45.825Z,14.54
2023-04-18T10:22:13.232Z,14.56
2023-04-18T10:24:45.956Z,14.66
2023-04-18T10:27:12.971Z,14.81
2023-04-18T10:29:54.598Z,14.97
2023-04-18T10:32:24.156Z,14.98
2023-04-18T10:34:53.372Z,14.84
2023-04-18T10:37:19.906Z,14.72
2023-04-18T10:40:02.814Z,14.53
2023-04-18T10:42:47.560Z,14.48
2023-04-18T10:45:22.079Z,14.42
2023-04-18T10:47:49.169Z,14.42
2023-04-18T10:50:17.327Z,14.50
2023-04-18T10:52:44.276Z,14.72
2023-04-18T10:55:28.841Z,14.95
2023-04-18T10:57:56.951Z,15.03
2023-04-18T11:00:23.585Z,15.04
2023-04-18T11:02:52.781Z,15.05
2023-04-18T11:05:22.219Z,15.10
2023-04-18T11:07:51.352Z,15.25
2023-04-18T11:10:25.490Z,15.36
2023-04-18T11:12:53.174Z,15.50
2023-04-18T11:15:24.672Z,15.66
2023-04-18T11:18:04.874Z,15.86
2023-04-18T11:20:39.450Z,16.14
2023-04-18T11:23:16.788Z,16.51
2023-04-18T11:25:44.822Z,16.81
2023-04-18T11:28:17.098Z,17.13
2023-04-18T11:30:43.596Z,17.36
2023-04-18T11:33:11.584Z,17.34
2023-04-18T11:35:42.520Z,17.13
2023-04-18T11:38:11.629Z,16.95
2023-04-18T11:40:38.630Z,16.65
2023-04-18T11:43:07.150Z,16.32
2023-04-18T11:45:34.023Z,16.18
2023-04-18T11:48:00.930Z,15.99
2023-04-18T11:50:27.632Z,15.89
2023-04-18T11:52:55.287Z,15.79
2023-04-18T11:55:24.994Z,15.73
2023-04-18T11:57:56.518Z,15.75
2023-04-18T12:00:41.821Z,15.89
2023-04-18T12:03:15.741Z,15.89
2023-04-18T12:05:45.396Z,15.95
2023-04-18T12:08:17.217Z,15.93
2023-04-18T12:10:48.297Z,16.02
2023-04-18T12:13:15.174Z,16.02
2023-04-18T12:15:44.374Z,16.04
2023-04-18T12:18:13.283Z,16.03
2023-04-18T12:20:50.388Z,16.21
2023-04-18T12:23:35.459Z,16.37
2023-04-18T12:26:22.526Z,16.61
2023-04-18T12:28:52.838Z,16.69
2023-04-18T12:31:19.469Z,16.69
2023-04-18T12:33:45.883Z,16.64
2023-04-18T12:36:12.396Z,16.63
2023-04-18T12:38:39.011Z,16.49
2023-04-18T12:41:05.593Z,16.42
2023-04-18T12:43:32.519Z,16.44
2023-04-18T12:46:00.590Z,16.42
2023-04-18T12:48:27.100Z,16.38
2023-04-18T12:50:53.540Z,16.22
2023-04-18T12:53:22.702Z,16.07
2023-04-18T12:55:49.275Z,15.97
2023-04-18T12:58:18.593Z,15.92
2023-04-18T13:00:47.923Z,15.95
2023-04-18T13:03:14.548Z,15.94
2023-04-18T13:05:41.420Z,15.91
2023-04-18T13:08:16.959Z,15.91
2023-04-18T13:10:44.774Z,15.91
2023-04-18T13:13:11.375Z,15.90
2023-04-18T13:15:38.201Z,15.90
2023-04-18T13:18:06.725Z,15.89
2023-04-18T13:20:34.484Z,15.91
2023-04-18T13:23:02.584Z,15.95
2023-04-18T13:25:29.130Z,15.96
2023-04-18T13:27:56.275Z,15.94
2023-04-18T13:30:22.725Z,15.96
2023-04-18T13:32:49.359Z,15.99
2023-04-18T13:35:15.891Z,16.13
2023-04-18T13:37:42.658Z,16.09
2023-04-18T13:40:11.837Z,16.17
2023-04-18T13:42:38.661Z,16.15
2023-04-18T13:45:07.602Z,16.11
2023-04-18T13:47:34.810Z,16.16
2023-04-18T13:50:01.478Z,16.22
2023-04-18T13:52:28.100Z,16.22
2023-04-18T13:54:55.310Z,16.21
2023-04-18T13:57:23.078Z,16.27
2023-04-18T13:59:49.556Z,16.32
2023-04-18T14:02:16.162Z,16.22
2023-04-18T14:04:46.473Z,16.13
2023-04-18T14:07:13.151Z,16.04
2023-04-18T14:09:42.368Z,16.13
2023-04-18T14:12:08.860Z,16.21
2023-04-18T14:14:35.428Z,16.33
2023-04-18T14:17:01.951Z,16.47
2023-04-18T14:19:28.418Z,16.58
2023-04-18T14:21:55.270Z,16.69
2023-04-18T14:24:21.808Z,16.64
2023-04-18T14:26:48.337Z,16.67
2023-04-18T14:29:14.941Z,16.63
2023-04-18T14:31:41.688Z,16.59
2023-04-18T14:34:09.849Z,16.45
2023-04-18T14:36:36.532Z,16.45
2023-04-18T14:39:03.507Z,16.52
2023-04-18T14:41:29.930Z,16.41
2023-04-18T14:43:56.601Z,16.37
2023-04-18T14:46:23.174Z,16.26
2023-04-18T14:48:49.889Z,16.26
2023-04-18T14:51:16.970Z,16.30
2023-04-18T14:53:44.407Z,16.21
2023-04-18T14:56:11.221Z,16.13
2023-04-18T14:58:37.716Z,15.97
2023-04-18T15:01:04.448Z,16.04
2023-04-18T15:03:33.080Z,16.13
2023-04-18T15:05:59.938Z,16.13
2023-04-18T15:08:27.892Z,16.14
2023-04-18T15:10:54.550Z,16.19
2023-04-18T15:13:21.157Z,16.17
2023-04-18T15:15:56.922Z,16.09
2023-04-18T15:18:25.731Z,16.07
2023-04-18T15:20:52.179Z,16.01
2023-04-18T15:23:18.802Z,15.98
2023-04-18T15:25:45.725Z,15.94
2023-04-18T15:28:13.828Z,15.87
2023-04-18T15:30:40.636Z,15.80
2023-04-18T15:33:07.506Z,15.85
2023-04-18T15:35:34.032Z,15.89
2023-04-18T15:38:00.529Z,15.95
2023-04-18T15:40:26.990Z,15.97
2023-04-18T15:42:54.389Z,15.94
2023-04-18T15:45:21.229Z,15.93
2023-04-18T15:47:47.842Z,15.98
2023-04-18T15:50:16.245Z,15.99
2023-04-18T15:52:44.520Z,15.99
2023-04-18T15:55:13.023Z,16.04
2023-04-18T15:57:40.698Z,16.02
2023-04-18T16:00:17.956Z,15.98
2023-04-18T16:02:45.250Z,15.98
2023-04-18T16:05:12.524Z,15.98
2023-04-18T16:07:40.829Z,16.02
2023-04-18T16:10:11.296Z,16.04
2023-04-18T16:12:38.427Z,16.08
2023-04-18T16:15:07.997Z,16.13
2023-04-18T16:17:35.532Z,16.17
2023-04-18T16:20:02.397Z,16.21
2023-04-18T16:22:29.038Z,16.27
2023-04-18T16:24:55.557Z,16.35
2023-04-18T16:27:22.100Z,16.36
2023-04-18T16:29:48.478Z,16.31
2023-04-18T16:32:15.149Z,16.24
2023-04-18T16:34:41.680Z,16.20
2023-04-18T16:37:08.258Z,16.12
2023-04-18T16:39:34.721Z,16.06
2023-04-18T16:42:01.515Z,16.04
2023-04-18T16:44:28.135Z,15.99
2023-04-18T16:46:54.643Z,15.96
2023-04-18T16:49:21.264Z,15.98
2023-04-18T16:51:47.804Z,15.98
2023-04-18T16:54:14.593Z,15.97
2023-04-18T16:56:41.972Z,16.02
2023-04-18T16:59:10.656Z,16.01
2023-04-18T17:01:37.253Z,15.98
2023-04-18T17:04:04.365Z,15.93
2023-04-18T17:06:31.992Z,15.94
2023-04-18T17:08:58.888Z,15.90
2023-04-18T17:11:26.385Z,15.87
2023-04-18T17:13:52.769Z,15.87
2023-04-18T17:16:19.296Z,15.84
2023-04-18T17:18:45.749Z,15.88
2023-04-18T17:21:12.531Z,15.86
2023-04-18T17:23:42.713Z,15.83
2023-04-18T17:26:09.497Z,15.82
2023-04-18T17:28:36.473Z,15.82
2023-04-18T17:31:03.715Z,15.80
2023-04-18T17:33:30.978Z,15.79
2023-04-18T17:35:58.075Z,15.79
2023-04-18T17:38:24.585Z,15.72
2023-04-18T17:41:01.891Z,15.65
2023-04-18T17:43:28.709Z,15.61
2023-04-18T17:45:56.955Z,15.59
2023-04-18T17:48:23.513Z,15.58
2023-04-18T17:50:50.924Z,15.54
2023-04-18T17:53:18.003Z,15.46
2023-04-18T17:55:45.214Z,15.39
2023-04-18T17:58:11.826Z,15.37
2023-04-18T18:00:38.403Z,15.42
2023-04-18T18:03:05.233Z,15.41
2023-04-18T18:05:31.841Z,15.33
2023-04-18T18:07:59.913Z,15.28
2023-04-18T18:10:27.098Z,15.32
2023-04-18T18:12:56.501Z,15.21
2023-04-18T18:15:24.262Z,15.16
2023-04-18T18:17:51.432Z,15.15
2023-04-18T18:20:18.231Z,15.10
2023-04-18T18:22:44.641Z,15.03
2023-04-18T18:25:11.123Z,14.98
2023-04-18T18:27:37.712Z,14.87
2023-04-18T18:30:04.667Z,14.82
2023-04-18T18:32:31.232Z,14.79
2023-04-18T18:34:57.683Z,14.78
2023-04-18T18:37:25.987Z,14.75
2023-04-18T18:39:55.059Z,14.71
2023-04-18T18:42:21.886Z,14.66
2023-04-18T18:44:48.371Z,14.64
2023-04-18T18:47:14.755Z,14.60
2023-04-18T18:49:41.253Z,14.58
2023-04-18T18:52:07.687Z,14.55
2023-04-18T18:54:34.474Z,14.50
2023-04-18T18:57:03.473Z,14.45
2023-04-18T18:59:33.319Z,14.44
2023-04-18T19:01:59.873Z,14.40
2023-04-18T19:04:26.576Z,14.33
2023-04-18T19:06:53.556Z,14.27
2023-04-18T19:09:22.994Z,14.21
2023-04-18T19:11:49.681Z,14.15
2023-04-18T19:14:16.130Z,14.04
2023-04-18T19:16:42.715Z,13.98
2023-04-18T19:19:10.086Z,13.94
2023-04-18T19:21:36.488Z,13.87
2023-04-18T19:24:02.982Z,13.81
2023-04-18T19:26:29.463Z,13.72
2023-04-18T19:28:55.987Z,13.69
2023-04-18T19:31:22.524Z,13.61
2023-04-18T19:33:50.030Z,13.59
2023-04-18T19:36:16.707Z,13.55
2023-04-18T19:38:43.105Z,13.49
2023-04-18T19:41:09.687Z,13.47
2023-04-18T19:43:38.332Z,13.44
2023-04-18T19:46:04.840Z,13.36
2023-04-18T19:48:31.461Z,13.33
2023-04-18T19:50:58.081Z,13.25
2023-04-18T19:53:27.655Z,13.23
2023-04-18T19:55:54.969Z,13.21
2023-04-18T19:58:44.585Z,13.17
2023-04-18T20:01:12.638Z,13.11
2023-04-18T20:03:41.014Z,13.10
2023-04-18T20:06:08.136Z,13.08
2023-04-18T20:08:41.397Z,13.06
2023-04-18T20:11:10.367Z,13.03
2023-04-18T20:13:37.519Z,13.00
2023-04-18T20:16:05.248Z,12.94
2023-04-18T20:18:32.217Z,12.92
2023-04-18T20:20:58.660Z,12.88
2023-04-18T20:23:26.269Z,12.84
2023-04-18T20:25:52.711Z,12.77
2023-04-18T20:28:21.371Z,12.76
2023-04-18T20:30:48.612Z,12.65
2023-04-18T20:33:15.368Z,12.65
2023-04-18T20:35:41.888Z,12.65
2023-04-18T20:38:09.740Z,12.63
2023-04-18T20:40:39.079Z,12.59
2023-04-18T20:43:07.928Z,12.59
2023-04-18T20:45:37.490Z,12.57
2023-04-18T20:48:04.450Z,12.55
2023-04-18T20:50:31.985Z,12.50
2023-04-18T20:53:00.369Z,12.47
2023-04-18T20:55:26.741Z,12.43
2023-04-18T20:57:53.276Z,12.37
2023-04-18T21:00:20.022Z,12.36
2023-04-18T21:02:46.747Z,12.38
2023-04-18T21:05:13.286Z,12.36
2023-04-18T21:07:44.026Z,12.34
2023-04-18T21:10:11.902Z,12.31
2023-04-18T21:12:38.349Z,12.30
2023-04-18T21:15:05.658Z,12.25
2023-04-18T21:17:32.184Z,12.23
2023-04-18T21:19:58.695Z,12.20
2023-04-18T21:22:25.258Z,12.17
2023-04-18T21:24:51.685Z,12.16
2023-04-18T21:27:18.070Z,12.16
2023-04-18T21:29:44.463Z,12.10
2023-04-18T21:32:10.888Z,12.05
2023-04-18T21:34:37.379Z,12.00
2023-04-18T21:37:03.845Z,11.99
2023-04-18T21:39:30.815Z,11.96
2023-04-18T21:41:57.307Z,11.94
2023-04-18T21:44:23.668Z,11.96
2023-04-18T21:46:50.150Z,11.93
2023-04-18T21:49:16.686Z,11.90
2023-04-18T21:51:43.386Z,11.86
2023-04-18T21:54:09.815Z,11.82
2023-04-18T21:56:37.498Z,11.81
2023-04-18T21:59:04.169Z,11.78
2023-04-18T22:01:30.822Z,11.71
2023-04-18T22:03:57.623Z,11.69
2023-04-18T22:06:24.199Z,11.67
2023-04-18T22:08:51.527Z,11.58
2023-04-18T22:11:18.732Z,11.60
2023-04-18T22:13:45.807Z,11.58
2023-04-18T22:16:12.244Z,11.57
2023-04-18T22:18:38.706Z,11.61
2023-04-18T22:21:06.028Z,11.56
2023-04-18T22:23:32.508Z,11.52
2023-04-18T22:25:58.955Z,11.48
2023-04-18T22:28:27.791Z,11.44
2023-04-18T22:30:54.365Z,11.39
2023-04-18T22:33:20.864Z,11.33
2023-04-18T22:35:48.551Z,11.27
2023-04-18T22:38:15.487Z,11.26
2023-04-18T22:40:42.059Z,11.26
2023-04-18T22:43:08.592Z,11.22
2023-04-18T22:45:35.402Z,11.21
2023-04-18T22:48:01.884Z,11.21
2023-04-18T22:50:30.109Z,11.19
2023-04-18T22:52:57.408Z,11.16
2023-04-18T22:55:23.962Z,11.16
2023-04-18T22:57:50.434Z,11.13
2023-04-18T23:00:17.012Z,11.13
2023-04-18T23:02:43.568Z,11.07
2023-04-18T23:05:10.892Z,11.06
2023-04-18T23:07:37.379Z,11.06
2023-04-18T23:10:06.361Z,11.04
2023-04-18T23:12:32.904Z,11.00
2023-04-18T23:14:59.374Z,10.98
2023-04-18T23:17:25.974Z,10.99
2023-04-18T23:19:52.502Z,10.99
2023-04-18T23:22:20.514Z,10.86
2023-04-18T23:24:46.888Z,10.83
2023-04-18T23:27:14.940Z,10.77
2023-04-18T23:29:43.324Z,10.77
2023-04-18T23:32:09.692Z,10.78
2023-04-18T23:34:36.221Z,10.77
2023-04-18T23:37:02.628Z,10.71
2023-04-18T23:39:29.178Z,10.68
2023-04-18T23:41:56.202Z,10.65
2023-04-18T23:44:23.145Z,10.61
2023-04-18T23:46:49.810Z,10.60
2023-04-18T23:49:16.597Z,10.55
2023-04-18T23:51:43.018Z,10.56
2023-04-18T23:54:09.507Z,10.54
2023-04-18T23:56:36.045Z,10.54
2023-04-18T23:59:02.493Z,10.47
